createdAt,value
2022-10-26T00:01:16.203Z,12.10
2022-10-26T00:03:45.424Z,12.20
2022-10-26T00:06:13.540Z,12.10
2022-10-26T00:08:41.074Z,11.60
2022-10-26T00:11:08.816Z,11.40
2022-10-26T00:13:36.634Z,11.70
2022-10-26T00:16:10.027Z,11.80
2022-10-26T00:18:37.228Z,11.60
2022-10-26T00:21:08.439Z,11.80
2022-10-26T00:23:35.768Z,11.90
2022-10-26T00:28:30.125Z,12.10
2022-10-26T00:31:04.886Z,11.80
2022-10-26T00:33:32.546Z,11.50
2022-10-26T00:35:59.653Z,12.20
2022-10-26T00:38:26.697Z,11.90
2022-10-26T00:40:53.642Z,12.00
2022-10-26T00:43:20.491Z,12.00
2022-10-26T00:45:49.802Z,12.00
2022-10-26T00:48:24.902Z,11.90
2022-10-26T00:50:54.218Z,11.20
2022-10-26T00:53:21.313Z,11.90
2022-10-26T00:55:52.447Z,11.50
2022-10-26T00:58:21.613Z,11.70
2022-10-26T01:00:49.821Z,11.90
2022-10-26T01:03:17.835Z,11.30
2022-10-26T01:05:47.625Z,11.60
2022-10-26T01:08:17.006Z,11.40
2022-10-26T01:10:44.408Z,11.50
2022-10-26T01:13:12.721Z,12.00
2022-10-26T01:15:56.824Z,11.60
2022-10-26T01:18:37.936Z,11.60
2022-10-26T01:24:20.151Z,11.30
2022-10-26T01:27:05.663Z,11.50
2022-10-26T01:32:14.236Z,11.60
2022-10-26T01:34:52.130Z,11.30
2022-10-26T01:37:25.505Z,11.80
2022-10-26T01:40:06.422Z,11.60
2022-10-26T01:42:36.047Z,11.60
2022-10-26T01:45:09.894Z,11.40
2022-10-26T01:47:38.730Z,11.20
2022-10-26T01:50:07.182Z,12.30
2022-10-26T01:52:34.171Z,11.50
2022-10-26T01:55:39.248Z,11.70
2022-10-26T01:58:30.225Z,11.60
2022-10-26T02:01:02.741Z,11.60
2022-10-26T02:03:39.803Z,11.40
2022-10-26T02:06:38.439Z,11.60
2022-10-26T02:09:18.517Z,11.60
2022-10-26T02:11:48.018Z,11.60
2022-10-26T02:14:17.501Z,11.60
2022-10-26T02:16:56.491Z,11.60
2022-10-26T02:19:26.157Z,11.70
2022-10-26T02:22:02.153Z,11.30
2022-10-26T02:24:30.834Z,11.70
2022-10-26T02:27:00.142Z,11.60
2022-10-26T02:29:28.851Z,11.30
2022-10-26T02:31:57.197Z,11.60
2022-10-26T02:34:29.134Z,12.10
2022-10-26T02:37:00.506Z,11.80
2022-10-26T02:39:32.560Z,11.40
2022-10-26T02:42:02.529Z,11.20
2022-10-26T02:44:59.682Z,11.70
2022-10-26T02:49:55.182Z,11.40
2022-10-26T02:55:08.225Z,10.90
2022-10-26T02:57:45.031Z,11.40
2022-10-26T03:00:17.309Z,11.40
2022-10-26T03:02:48.559Z,11.60
2022-10-26T03:05:27.783Z,11.00
2022-10-26T03:07:55.875Z,11.60
2022-10-26T03:10:23.180Z,11.70
2022-10-26T03:12:50.612Z,11.60
2022-10-26T03:17:45.386Z,11.00
2022-10-26T03:27:35.901Z,11.60
2022-10-26T03:30:02.801Z,11.70
2022-10-26T03:32:29.673Z,11.70
2022-10-26T03:34:56.482Z,11.60
2022-10-26T03:37:23.408Z,11.00
2022-10-26T03:39:50.364Z,11.20
2022-10-26T03:42:17.242Z,11.30
2022-10-26T03:44:44.523Z,11.60
2022-10-26T03:47:11.326Z,11.20
2022-10-26T03:52:05.413Z,11.50
2022-10-26T03:54:32.243Z,11.00
2022-10-26T03:59:26.337Z,11.50
2022-10-26T04:04:24.958Z,11.30
2022-10-26T04:06:52.484Z,11.10
2022-10-26T04:09:19.352Z,11.40
2022-10-26T04:14:13.596Z,11.70
2022-10-26T04:16:40.556Z,11.30
2022-10-26T04:19:07.418Z,11.40
2022-10-26T04:21:35.500Z,11.30
2022-10-26T04:24:02.665Z,11.10
2022-10-26T04:26:29.534Z,11.30
2022-10-26T04:31:23.834Z,10.90
2022-10-26T04:36:17.966Z,10.70
2022-10-26T04:48:33.623Z,11.20
2022-10-26T04:51:01.114Z,10.90
2022-10-26T04:53:28.450Z,11.00
2022-10-26T04:55:59.105Z,11.30
2022-10-26T04:58:26.655Z,11.30
2022-10-26T05:03:20.929Z,11.00
2022-10-26T05:05:48.166Z,11.00
2022-10-26T05:08:15.862Z,10.80
2022-10-26T05:10:42.988Z,11.10
2022-10-26T05:13:11.150Z,11.40
2022-10-26T05:15:38.057Z,10.70
2022-10-26T05:18:05.879Z,11.20
2022-10-26T05:20:35.274Z,11.20
2022-10-26T05:23:05.544Z,11.00
2022-10-26T05:25:36.149Z,11.10
2022-10-26T05:28:05.948Z,11.20
2022-10-26T05:30:32.869Z,11.10
2022-10-26T05:33:03.249Z,11.30
2022-10-26T05:35:30.849Z,11.10
2022-10-26T05:37:58.208Z,11.30
2022-10-26T05:40:25.641Z,11.30
2022-10-26T05:42:53.003Z,11.40
2022-10-26T05:45:20.144Z,11.20
2022-10-26T05:47:47.627Z,11.30
2022-10-26T05:52:43.829Z,11.10
2022-10-26T05:55:12.897Z,11.40
2022-10-26T05:57:40.625Z,11.40
2022-10-26T06:00:10.419Z,11.30
2022-10-26T06:03:04.288Z,11.00
2022-10-26T06:05:52.385Z,10.90
2022-10-26T06:08:20.576Z,11.10
2022-10-26T06:10:49.478Z,11.00
2022-10-26T06:13:17.249Z,11.20
2022-10-26T06:16:09.598Z,11.10
2022-10-26T06:18:43.047Z,11.00
2022-10-26T06:21:30.365Z,11.10
2022-10-26T06:24:24.794Z,11.50
2022-10-26T06:27:10.529Z,11.20
2022-10-26T06:30:01.405Z,10.90
2022-10-26T06:32:29.086Z,11.00
2022-10-26T06:35:11.381Z,11.20
2022-10-26T06:37:39.763Z,11.10
2022-10-26T06:40:07.368Z,11.60
2022-10-26T06:42:34.438Z,11.40
2022-10-26T06:45:01.578Z,11.20
2022-10-26T06:47:50.768Z,10.60
2022-10-26T06:50:39.527Z,11.40
2022-10-26T06:53:29.609Z,10.80
2022-10-26T06:55:59.174Z,10.90
2022-10-26T06:58:31.111Z,11.60
2022-10-26T07:03:25.964Z,11.30
2022-10-26T07:05:52.858Z,11.00
2022-10-26T07:08:19.818Z,10.90
2022-10-26T07:10:47.238Z,11.20
2022-10-26T07:13:14.118Z,11.60
2022-10-26T07:15:42.918Z,10.80
2022-10-26T07:20:41.609Z,11.30
2022-10-26T07:23:13.219Z,11.50
2022-10-26T07:25:40.711Z,11.40
2022-10-26T07:28:10.526Z,11.10
2022-10-26T07:30:39.415Z,11.10
2022-10-26T07:33:12.224Z,11.10
2022-10-26T07:35:40.257Z,11.20
2022-10-26T07:38:09.006Z,11.10
2022-10-26T07:40:37.856Z,11.40
2022-10-26T07:45:32.570Z,11.00
2022-10-26T07:47:59.487Z,11.40
2022-10-26T07:50:26.683Z,10.60
2022-10-26T07:52:54.493Z,11.90
2022-10-26T07:55:21.464Z,11.20
2022-10-26T07:57:51.043Z,11.50
2022-10-26T08:00:21.530Z,11.30
2022-10-26T08:05:15.815Z,11.60
2022-10-26T08:07:44.678Z,10.80
2022-10-26T08:10:12.528Z,11.70
2022-10-26T08:15:08.058Z,11.60
2022-10-26T08:17:34.938Z,12.00
2022-10-26T08:20:01.772Z,11.50
2022-10-26T08:22:31.768Z,12.20
2022-10-26T08:24:58.998Z,12.30
2022-10-26T08:32:20.488Z,12.40
2022-10-26T08:34:47.349Z,12.40
2022-10-26T08:37:14.196Z,12.20
2022-10-26T08:42:16.944Z,12.30
2022-10-26T08:44:50.096Z,12.40
2022-10-26T08:47:22.484Z,12.20
2022-10-26T08:49:59.923Z,12.40
2022-10-26T08:52:50.457Z,12.40
2022-10-26T08:55:21.279Z,12.30
2022-10-26T08:57:50.112Z,12.60
2022-10-26T09:00:25.463Z,12.60
2022-10-26T09:02:53.586Z,12.50
2022-10-26T09:05:36.098Z,12.90
2022-10-26T09:08:26.470Z,12.60
2022-10-26T09:11:30.741Z,12.50
2022-10-26T09:14:23.861Z,12.60
2022-10-26T09:17:22.994Z,12.30
2022-10-26T09:20:26.852Z,12.50
2022-10-26T09:22:59.145Z,12.40
2022-10-26T09:25:29.689Z,12.00
2022-10-26T09:28:01.437Z,12.50
2022-10-26T09:30:30.406Z,12.40
2022-10-26T09:33:04.178Z,12.40
2022-10-26T09:35:49.959Z,12.60
2022-10-26T09:38:49.105Z,12.40
2022-10-26T09:41:37.699Z,12.40
2022-10-26T09:44:29.658Z,11.90
2022-10-26T09:47:14.942Z,12.70
2022-10-26T09:50:05.370Z,12.60
2022-10-26T09:52:32.228Z,12.00
2022-10-26T09:57:27.257Z,12.30
2022-10-26T10:02:47.169Z,12.20
2022-10-26T10:08:28.043Z,12.20
2022-10-26T10:10:58.381Z,12.00
2022-10-26T10:13:28.506Z,12.20
2022-10-26T10:16:01.203Z,11.90
2022-10-26T10:18:28.148Z,12.30
2022-10-26T10:20:58.322Z,12.00
2022-10-26T10:23:33.702Z,12.10
2022-10-26T10:26:13.905Z,12.10
2022-10-26T10:28:42.733Z,12.10
2022-10-26T10:31:20.115Z,12.20
2022-10-26T10:36:20.540Z,11.80
2022-10-26T10:38:50.136Z,11.70
2022-10-26T10:41:22.305Z,12.10
2022-10-26T10:43:56.877Z,11.60
2022-10-26T10:46:27.259Z,12.50
2022-10-26T10:49:06.210Z,12.20
2022-10-26T10:51:40.192Z,12.30
2022-10-26T10:54:29.328Z,12.50
2022-10-26T10:57:18.293Z,12.20
2022-10-26T11:00:06.611Z,12.40
2022-10-26T11:02:45.559Z,12.30
2022-10-26T11:05:24.774Z,12.30
2022-10-26T11:07:58.538Z,12.60
2022-10-26T11:10:29.236Z,12.40
2022-10-26T11:13:01.052Z,12.70
2022-10-26T11:15:33.033Z,12.60
2022-10-26T11:18:14.702Z,12.70
2022-10-26T11:20:49.387Z,12.80
2022-10-26T11:23:16.310Z,13.30
2022-10-26T11:26:14.035Z,12.80
2022-10-26T11:29:19.346Z,12.50
2022-10-26T11:31:54.512Z,12.80
2022-10-26T11:34:38.248Z,13.70
2022-10-26T11:37:23.926Z,13.80
2022-10-26T11:40:26.529Z,14.50
2022-10-26T11:43:18.689Z,14.40
2022-10-26T11:45:57.526Z,14.80
2022-10-26T11:48:34.251Z,13.90
2022-10-26T11:51:01.796Z,14.30
2022-10-26T11:53:35.683Z,14.20
2022-10-26T11:56:05.409Z,14.20
2022-10-26T11:58:33.288Z,13.80
2022-10-26T12:01:09.241Z,14.30
2022-10-26T12:03:45.725Z,14.50
2022-10-26T12:06:15.405Z,15.30
2022-10-26T12:08:47.708Z,15.50
2022-10-26T12:11:38.743Z,16.40
2022-10-26T12:14:37.911Z,16.80
2022-10-26T12:17:15.072Z,16.80
2022-10-26T12:19:49.137Z,17.40
2022-10-26T12:22:19.288Z,17.10
2022-10-26T12:25:04.586Z,16.70
2022-10-26T12:30:25.712Z,16.80
2022-10-26T12:32:58.574Z,17.40
2022-10-26T12:35:40.040Z,17.40
2022-10-26T12:38:27.947Z,17.70
2022-10-26T12:41:10.735Z,18.10
2022-10-26T12:43:40.068Z,18.80
2022-10-26T12:46:12.478Z,19.40
2022-10-26T12:48:47.877Z,19.90
2022-10-26T12:51:24.620Z,19.00
2022-10-26T12:53:54.495Z,19.00
2022-10-26T12:56:30.217Z,18.90
2022-10-26T12:59:23.702Z,17.50
2022-10-26T13:01:55.999Z,17.90
2022-10-26T13:04:47.185Z,16.10
2022-10-26T13:07:33.819Z,15.70
2022-10-26T13:10:11.872Z,15.50
2022-10-26T13:12:54.731Z,15.60
2022-10-26T13:15:31.390Z,15.50
2022-10-26T13:20:25.822Z,15.10
2022-10-26T13:25:28.061Z,15.80
2022-10-26T13:28:07.127Z,15.00
2022-10-26T13:30:33.922Z,15.40
2022-10-26T13:33:02.876Z,15.00
2022-10-26T13:35:31.924Z,15.30
2022-10-26T13:38:07.196Z,15.70
2022-10-26T13:40:38.375Z,16.30
2022-10-26T13:43:12.470Z,16.90
2022-10-26T13:45:53.506Z,16.80
2022-10-26T13:48:39.895Z,16.10
2022-10-26T13:51:23.340Z,16.40
2022-10-26T13:53:55.998Z,17.00
2022-10-26T13:56:30.906Z,17.50
2022-10-26T13:59:09.794Z,17.70
2022-10-26T14:04:28.096Z,17.20
2022-10-26T14:06:55.369Z,16.90
2022-10-26T14:09:22.962Z,16.40
2022-10-26T14:11:51.309Z,16.30
2022-10-26T14:14:22.719Z,16.50
2022-10-26T14:16:54.184Z,15.50
2022-10-26T14:19:36.108Z,15.40
2022-10-26T14:22:03.668Z,14.70
2022-10-26T14:24:48.197Z,14.70
2022-10-26T14:27:20.056Z,14.70
2022-10-26T14:29:58.534Z,14.60
2022-10-26T14:32:34.212Z,14.30
2022-10-26T14:35:01.221Z,14.50
2022-10-26T14:38:10.645Z,14.00
2022-10-26T14:40:37.691Z,13.90
2022-10-26T14:43:05.947Z,13.80
2022-10-26T14:45:48.474Z,14.50
2022-10-26T14:48:30.817Z,14.20
2022-10-26T14:51:18.095Z,13.80
2022-10-26T14:53:53.444Z,13.80
2022-10-26T14:56:36.786Z,14.40
2022-10-26T14:59:18.883Z,13.80
2022-10-26T15:01:54.665Z,13.50
2022-10-26T15:04:39.254Z,13.40
2022-10-26T15:07:12.361Z,12.80
2022-10-26T15:09:41.772Z,13.40
2022-10-26T15:12:38.822Z,13.30
2022-10-26T15:15:14.702Z,12.90
2022-10-26T15:17:53.767Z,13.00
2022-10-26T15:20:23.387Z,12.80
2022-10-26T15:22:58.769Z,12.30
2022-10-26T15:25:29.653Z,12.80
2022-10-26T15:28:12.429Z,12.40
2022-10-26T15:30:39.361Z,12.80
2022-10-26T15:33:22.142Z,12.30
2022-10-26T15:35:49.208Z,12.70
2022-10-26T15:40:44.152Z,11.80
2022-10-26T15:43:12.504Z,11.90
2022-10-26T15:45:52.324Z,12.10
2022-10-26T15:48:31.093Z,12.20
2022-10-26T15:50:58.475Z,11.90
2022-10-26T15:53:29.533Z,12.00
2022-10-26T15:56:00.946Z,11.60
2022-10-26T15:58:31.307Z,11.70
2022-10-26T16:03:26.894Z,11.10
2022-10-26T16:05:58.135Z,11.80
2022-10-26T16:08:27.868Z,11.50
2022-10-26T16:10:55.102Z,11.30
2022-10-26T16:13:22.008Z,11.50
2022-10-26T16:18:16.198Z,11.80
2022-10-26T16:20:45.863Z,11.70
2022-10-26T16:23:13.406Z,11.40
2022-10-26T16:25:43.621Z,11.30
2022-10-26T16:28:16.351Z,11.00
2022-10-26T16:30:43.717Z,11.50
2022-10-26T16:33:10.693Z,11.70
2022-10-26T16:35:37.669Z,10.80
2022-10-26T16:38:04.587Z,11.50
2022-10-26T16:42:58.838Z,10.90
2022-10-26T16:45:25.712Z,11.10
2022-10-26T16:47:52.860Z,11.20
2022-10-26T16:50:22.210Z,11.30
2022-10-26T16:52:49.147Z,11.20
2022-10-26T16:57:44.408Z,10.70
2022-10-26T17:00:11.587Z,10.90
2022-10-26T17:02:39.671Z,10.90
2022-10-26T17:05:07.481Z,11.40
2022-10-26T17:10:02.182Z,11.10
2022-10-26T17:14:58.584Z,10.90
2022-10-26T17:17:25.424Z,10.80
2022-10-26T17:19:52.375Z,10.20
2022-10-26T17:22:19.269Z,10.30
2022-10-26T17:37:02.859Z,11.20
2022-10-26T17:39:29.717Z,11.20
2022-10-26T17:41:56.612Z,10.80
2022-10-26T17:44:24.010Z,10.90
2022-10-26T17:49:18.126Z,10.80
2022-10-26T17:51:44.986Z,10.60
2022-10-26T17:54:11.860Z,11.10
2022-10-26T17:56:39.375Z,10.90
2022-10-26T17:59:11.594Z,10.60
2022-10-26T18:01:39.044Z,10.70
2022-10-26T18:04:06.038Z,10.40
2022-10-26T18:06:32.962Z,10.70
2022-10-26T18:08:59.863Z,10.50
2022-10-26T18:11:28.603Z,10.60
2022-10-26T18:13:56.697Z,10.60
2022-10-26T18:16:25.067Z,10.90
2022-10-26T18:19:01.660Z,11.10
2022-10-26T18:21:30.897Z,10.60
2022-10-26T18:23:57.972Z,11.20
2022-10-26T18:26:29.178Z,11.30
2022-10-26T18:28:57.237Z,10.80
2022-10-26T18:31:25.236Z,11.00
2022-10-26T18:34:00.430Z,11.10
2022-10-26T18:36:28.748Z,10.60
2022-10-26T18:38:55.856Z,10.90
2022-10-26T18:41:23.908Z,11.10
2022-10-26T18:43:52.861Z,10.60
2022-10-26T18:46:25.391Z,10.90
2022-10-26T18:48:53.348Z,10.90
2022-10-26T18:51:23.035Z,11.30
2022-10-26T18:53:49.976Z,10.90
2022-10-26T18:56:19.437Z,10.50
2022-10-26T18:58:48.688Z,10.60
2022-10-26T19:01:25.521Z,10.30
2022-10-26T19:04:01.294Z,10.00
2022-10-26T19:06:49.031Z,9.80
2022-10-26T19:09:17.224Z,9.90
2022-10-26T19:14:12.593Z,9.80
2022-10-26T19:16:45.958Z,9.20
2022-10-26T19:19:15.659Z,9.20
2022-10-26T19:21:42.673Z,9.70
2022-10-26T19:24:20.538Z,9.70
2022-10-26T19:26:50.347Z,9.60
2022-10-26T19:29:18.648Z,9.50
2022-10-26T19:31:46.810Z,9.30
2022-10-26T19:34:15.480Z,9.10
2022-10-26T19:36:45.081Z,10.00
2022-10-26T19:41:43.920Z,9.90
2022-10-26T19:44:12.132Z,9.80
2022-10-26T19:46:40.156Z,9.50
2022-10-26T19:51:34.354Z,9.40
2022-10-26T19:54:06.113Z,9.30
2022-10-26T19:56:34.725Z,9.50
2022-10-26T19:59:01.826Z,9.90
2022-10-26T20:01:29.083Z,9.60
2022-10-26T20:03:56.043Z,9.90
2022-10-26T20:06:23.191Z,9.40
2022-10-26T20:08:50.494Z,9.60
2022-10-26T20:11:18.265Z,9.80
2022-10-26T20:13:46.586Z,9.50
2022-10-26T20:16:14.547Z,10.10
2022-10-26T20:18:44.410Z,9.90
2022-10-26T20:21:17.015Z,9.90
2022-10-26T20:23:44.749Z,10.10
2022-10-26T20:26:18.744Z,9.80
2022-10-26T20:28:48.662Z,10.40
2022-10-26T20:31:15.643Z,10.60
2022-10-26T20:33:42.945Z,10.20
2022-10-26T20:38:40.061Z,9.80
2022-10-26T20:41:11.207Z,9.60
2022-10-26T20:43:40.897Z,10.10
2022-10-26T20:46:11.533Z,10.30
2022-10-26T20:48:38.908Z,9.50
2022-10-26T20:51:16.684Z,10.30
2022-10-26T20:53:53.642Z,9.90
2022-10-26T20:56:27.794Z,9.60
2022-10-26T20:58:57.073Z,10.10
2022-10-26T21:01:25.673Z,10.20
2022-10-26T21:03:54.265Z,9.90
2022-10-26T21:06:21.787Z,9.60
2022-10-26T21:08:53.031Z,10.00
2022-10-26T21:11:21.780Z,9.90
2022-10-26T21:13:50.011Z,9.80
2022-10-26T21:16:17.966Z,10.10
2022-10-26T21:18:45.225Z,10.20
2022-10-26T21:21:12.753Z,10.00
2022-10-26T21:23:41.046Z,11.00
2022-10-26T21:26:09.264Z,10.10
2022-10-26T21:28:38.633Z,9.60
2022-10-26T21:31:07.083Z,9.60
2022-10-26T21:33:34.283Z,9.10
2022-10-26T21:36:06.351Z,9.70
2022-10-26T21:38:33.913Z,9.80
2022-10-26T21:41:09.883Z,9.60
2022-10-26T21:43:40.414Z,10.00
2022-10-26T21:46:08.018Z,9.80
2022-10-26T21:48:35.537Z,9.60
2022-10-26T21:51:07.005Z,10.00
2022-10-26T21:53:34.039Z,10.20
2022-10-26T21:56:16.962Z,9.50
2022-10-26T21:58:44.442Z,9.90
2022-10-26T22:01:20.097Z,10.00
2022-10-26T22:03:47.880Z,10.30
2022-10-26T22:06:17.141Z,9.10
2022-10-26T22:08:45.147Z,9.30
2022-10-26T22:11:15.565Z,9.50
2022-10-26T22:13:43.964Z,9.40
2022-10-26T22:16:24.158Z,9.40
2022-10-26T22:18:53.369Z,9.40
2022-10-26T22:21:21.996Z,9.40
2022-10-26T22:26:19.254Z,9.20
2022-10-26T22:28:47.882Z,9.70
2022-10-26T22:31:17.876Z,9.40
2022-10-26T22:33:45.552Z,9.10
2022-10-26T22:36:14.594Z,9.50
2022-10-26T22:41:10.369Z,9.10
2022-10-26T22:43:37.543Z,9.60
2022-10-26T22:46:18.389Z,9.10
2022-10-26T22:48:45.669Z,9.50
2022-10-26T22:51:18.827Z,8.90
2022-10-26T22:53:46.265Z,9.20
2022-10-26T22:56:14.454Z,9.20
2022-10-26T22:58:42.505Z,9.30
2022-10-26T23:01:12.564Z,8.70
2022-10-26T23:03:39.741Z,8.80
2022-10-26T23:06:09.192Z,9.10
2022-10-26T23:08:36.330Z,9.10
2022-10-26T23:11:06.710Z,9.30
2022-10-26T23:13:33.950Z,9.80
2022-10-26T23:16:10.894Z,9.40
2022-10-26T23:18:38.762Z,9.30
2022-10-26T23:21:06.965Z,9.30
2022-10-26T23:23:34.030Z,9.90
2022-10-26T23:26:05.957Z,9.20
2022-10-26T23:28:33.862Z,9.30
2022-10-26T23:33:28.704Z,9.20
2022-10-26T23:35:55.975Z,9.60
2022-10-26T23:38:23.499Z,9.30
2022-10-26T23:40:55.585Z,9.30
2022-10-26T23:43:23.341Z,9.40
2022-10-26T23:45:50.610Z,9.30
2022-10-26T23:48:19.411Z,9.10
2022-10-26T23:50:48.593Z,9.30
2022-10-26T23:53:18.638Z,9.60
2022-10-26T23:55:46.288Z,8.80
2022-10-26T23:58:14.022Z,9.00
